sensor_id;sensor_type;location;lat;lon;timestamp;P1;durP1;ratioP1;P2;durP2;ratioP2
27833;SDS011;15200;50.570;7.244;2023-03-04T00:04:54;95.87;;;39.83;;
27833;SDS011;15200;50.570;7.244;2023-03-04T00:07:22;105.10;;;43.53;;
27833;SDS011;15200;50.570;7.244;2023-03-04T00:09:49;103.40;;;42.37;;
27833;SDS011;15200;50.570;7.244;2023-03-04T00:12:16;101.73;;;42.60;;
27833;SDS011;15200;50.570;7.244;2023-03-04T00:14:44;90.93;;;40.37;;
27833;SDS011;15200;50.570;7.244;2023-03-04T00:17:11;99.83;;;39.80;;
27833;SDS011;15200;50.570;7.244;2023-03-04T00:22:25;103.37;;;40.07;;
27833;SDS011;15200;50.570;7.244;2023-03-04T00:24:52;99.47;;;40.43;;
27833;SDS011;15200;50.570;7.244;2023-03-04T00:27:20;106.30;;;43.33;;
27833;SDS011;15200;50.570;7.244;2023-03-04T00:29:47;104.87;;;42.90;;
27833;SDS011;15200;50.570;7.244;2023-03-04T00:35:01;111.87;;;42.33;;
27833;SDS011;15200;50.570;7.244;2023-03-04T00:37:28;102.17;;;41.67;;
27833;SDS011;15200;50.570;7.244;2023-03-04T00:39:55;104.83;;;41.57;;
27833;SDS011;15200;50.570;7.244;2023-03-04T00:42:23;98.83;;;40.50;;
27833;SDS011;15200;50.570;7.244;2023-03-04T00:44:50;92.63;;;38.60;;
27833;SDS011;15200;50.570;7.244;2023-03-04T00:47:17;103.27;;;41.93;;
27833;SDS011;15200;50.570;7.244;2023-03-04T00:49:45;101.87;;;40.20;;
27833;SDS011;15200;50.570;7.244;2023-03-04T00:52:12;100.00;;;40.47;;
27833;SDS011;15200;50.570;7.244;2023-03-04T00:54:39;94.07;;;39.80;;
27833;SDS011;15200;50.570;7.244;2023-03-04T00:57:07;99.27;;;40.83;;
27833;SDS011;15200;50.570;7.244;2023-03-04T00:59:34;97.20;;;39.57;;
27833;SDS011;15200;50.570;7.244;2023-03-04T01:02:01;105.27;;;42.70;;
27833;SDS011;15200;50.570;7.244;2023-03-04T01:04:28;103.80;;;41.43;;
27833;SDS011;15200;50.570;7.244;2023-03-04T01:06:56;106.00;;;40.33;;
27833;SDS011;15200;50.570;7.244;2023-03-04T01:09:23;93.83;;;39.63;;
27833;SDS011;15200;50.570;7.244;2023-03-04T01:11:52;96.70;;;40.43;;
27833;SDS011;15200;50.570;7.244;2023-03-04T01:14:19;103.23;;;41.50;;
27833;SDS011;15200;50.570;7.244;2023-03-04T01:19:33;95.83;;;40.23;;
27833;SDS011;15200;50.570;7.244;2023-03-04T01:22:00;94.33;;;40.57;;
27833;SDS011;15200;50.570;7.244;2023-03-04T01:24:28;97.87;;;41.50;;
27833;SDS011;15200;50.570;7.244;2023-03-04T01:26:55;97.37;;;42.80;;
27833;SDS011;15200;50.570;7.244;2023-03-04T01:29:23;101.07;;;39.93;;
27833;SDS011;15200;50.570;7.244;2023-03-04T01:31:50;93.83;;;40.13;;
27833;SDS011;15200;50.570;7.244;2023-03-04T01:34:17;107.43;;;40.10;;
27833;SDS011;15200;50.570;7.244;2023-03-04T01:36:45;103.33;;;41.23;;
27833;SDS011;15200;50.570;7.244;2023-03-04T01:39:12;101.67;;;40.37;;
27833;SDS011;15200;50.570;7.244;2023-03-04T01:41:39;104.50;;;41.83;;
27833;SDS011;15200;50.570;7.244;2023-03-04T01:44:27;105.07;;;41.40;;
27833;SDS011;15200;50.570;7.244;2023-03-04T01:46:55;99.80;;;39.60;;
27833;SDS011;15200;50.570;7.244;2023-03-04T01:49:22;103.07;;;42.50;;
27833;SDS011;15200;50.570;7.244;2023-03-04T01:51:51;102.30;;;42.47;;
27833;SDS011;15200;50.570;7.244;2023-03-04T01:54:20;98.00;;;40.23;;
27833;SDS011;15200;50.570;7.244;2023-03-04T01:56:47;102.93;;;41.60;;
27833;SDS011;15200;50.570;7.244;2023-03-04T01:59:23;101.93;;;41.47;;
27833;SDS011;15200;50.570;7.244;2023-03-04T02:01:51;87.63;;;38.50;;
27833;SDS011;15200;50.570;7.244;2023-03-04T02:04:20;103.30;;;42.90;;
27833;SDS011;15200;50.570;7.244;2023-03-04T02:06:48;104.03;;;42.93;;
27833;SDS011;15200;50.570;7.244;2023-03-04T02:09:16;110.47;;;43.23;;
27833;SDS011;15200;50.570;7.244;2023-03-04T02:11:44;97.73;;;41.03;;
27833;SDS011;15200;50.570;7.244;2023-03-04T02:14:12;102.83;;;40.97;;
27833;SDS011;15200;50.570;7.244;2023-03-04T02:16:39;100.37;;;40.73;;
27833;SDS011;15200;50.570;7.244;2023-03-04T02:19:10;98.80;;;42.20;;
27833;SDS011;15200;50.570;7.244;2023-03-04T02:21:35;100.07;;;40.93;;
27833;SDS011;15200;50.570;7.244;2023-03-04T02:24:09;101.90;;;40.73;;
27833;SDS011;15200;50.570;7.244;2023-03-04T02:26:34;97.90;;;39.87;;
27833;SDS011;15200;50.570;7.244;2023-03-04T02:29:02;109.10;;;43.17;;
27833;SDS011;15200;50.570;7.244;2023-03-04T02:31:39;98.17;;;41.00;;
27833;SDS011;15200;50.570;7.244;2023-03-04T02:34:29;99.33;;;40.80;;
27833;SDS011;15200;50.570;7.244;2023-03-04T02:36:35;98.43;;;41.23;;
27833;SDS011;15200;50.570;7.244;2023-03-04T02:39:04;107.43;;;44.00;;
27833;SDS011;15200;50.570;7.244;2023-03-04T02:41:32;100.30;;;41.77;;
27833;SDS011;15200;50.570;7.244;2023-03-04T02:43:59;102.93;;;41.57;;
27833;SDS011;15200;50.570;7.244;2023-03-04T02:46:26;111.47;;;42.37;;
27833;SDS011;15200;50.570;7.244;2023-03-04T02:48:54;105.70;;;43.47;;
27833;SDS011;15200;50.570;7.244;2023-03-04T02:51:21;100.03;;;42.20;;
27833;SDS011;15200;50.570;7.244;2023-03-04T02:53:48;97.20;;;40.43;;
27833;SDS011;15200;50.570;7.244;2023-03-04T02:56:15;109.33;;;43.10;;
27833;SDS011;15200;50.570;7.244;2023-03-04T02:58:43;92.07;;;40.43;;
27833;SDS011;15200;50.570;7.244;2023-03-04T03:01:10;102.30;;;42.03;;
27833;SDS011;15200;50.570;7.244;2023-03-04T03:03:37;97.87;;;41.10;;
27833;SDS011;15200;50.570;7.244;2023-03-04T03:06:05;101.17;;;39.57;;
27833;SDS011;15200;50.570;7.244;2023-03-04T03:08:32;96.87;;;39.33;;
27833;SDS011;15200;50.570;7.244;2023-03-04T03:10:59;98.97;;;42.33;;
27833;SDS011;15200;50.570;7.244;2023-03-04T03:13:27;104.47;;;41.00;;
27833;SDS011;15200;50.570;7.244;2023-03-04T03:15:54;94.10;;;39.73;;
27833;SDS011;15200;50.570;7.244;2023-03-04T03:18:22;98.03;;;39.53;;
27833;SDS011;15200;50.570;7.244;2023-03-04T03:20:49;94.67;;;39.20;;
27833;SDS011;15200;50.570;7.244;2023-03-04T03:23:16;97.67;;;41.83;;
27833;SDS011;15200;50.570;7.244;2023-03-04T03:25:44;107.37;;;41.47;;
27833;SDS011;15200;50.570;7.244;2023-03-04T03:28:11;102.20;;;39.83;;
27833;SDS011;15200;50.570;7.244;2023-03-04T03:30:38;99.67;;;40.50;;
27833;SDS011;15200;50.570;7.244;2023-03-04T03:33:05;102.77;;;40.73;;
27833;SDS011;15200;50.570;7.244;2023-03-04T03:35:33;97.60;;;40.20;;
27833;SDS011;15200;50.570;7.244;2023-03-04T03:38:00;112.17;;;43.30;;
27833;SDS011;15200;50.570;7.244;2023-03-04T03:40:27;102.77;;;41.07;;
27833;SDS011;15200;50.570;7.244;2023-03-04T03:42:55;103.67;;;41.93;;
27833;SDS011;15200;50.570;7.244;2023-03-04T03:45:22;107.27;;;42.13;;
27833;SDS011;15200;50.570;7.244;2023-03-04T03:47:49;101.20;;;40.53;;
27833;SDS011;15200;50.570;7.244;2023-03-04T03:50:17;97.87;;;39.53;;
27833;SDS011;15200;50.570;7.244;2023-03-04T03:52:44;99.70;;;39.13;;
27833;SDS011;15200;50.570;7.244;2023-03-04T03:55:11;97.30;;;39.83;;
27833;SDS011;15200;50.570;7.244;2023-03-04T03:57:38;97.13;;;39.23;;
27833;SDS011;15200;50.570;7.244;2023-03-04T04:00:07;94.47;;;39.73;;
27833;SDS011;15200;50.570;7.244;2023-03-04T04:02:34;95.83;;;40.00;;
27833;SDS011;15200;50.570;7.244;2023-03-04T04:05:02;98.13;;;39.87;;
27833;SDS011;15200;50.570;7.244;2023-03-04T04:07:29;103.00;;;40.77;;
27833;SDS011;15200;50.570;7.244;2023-03-04T04:09:56;98.93;;;39.00;;
27833;SDS011;15200;50.570;7.244;2023-03-04T04:12:24;87.53;;;40.07;;
27833;SDS011;15200;50.570;7.244;2023-03-04T04:14:51;95.23;;;39.87;;
27833;SDS011;15200;50.570;7.244;2023-03-04T04:17:18;104.77;;;41.20;;
27833;SDS011;15200;50.570;7.244;2023-03-04T04:19:46;104.83;;;40.97;;
27833;SDS011;15200;50.570;7.244;2023-03-04T04:22:14;94.43;;;39.13;;
27833;SDS011;15200;50.570;7.244;2023-03-04T04:24:42;92.83;;;40.23;;
27833;SDS011;15200;50.570;7.244;2023-03-04T04:27:09;105.97;;;40.80;;
27833;SDS011;15200;50.570;7.244;2023-03-04T04:29:37;96.27;;;40.57;;
27833;SDS011;15200;50.570;7.244;2023-03-04T04:32:04;100.53;;;40.00;;
27833;SDS011;15200;50.570;7.244;2023-03-04T04:34:32;99.97;;;41.57;;
27833;SDS011;15200;50.570;7.244;2023-03-04T04:36:59;94.67;;;41.97;;
27833;SDS011;15200;50.570;7.244;2023-03-04T04:39:27;86.83;;;37.83;;
27833;SDS011;15200;50.570;7.244;2023-03-04T04:41:55;101.13;;;40.27;;
27833;SDS011;15200;50.570;7.244;2023-03-04T04:44:22;92.23;;;40.93;;
27833;SDS011;15200;50.570;7.244;2023-03-04T04:46:50;93.10;;;40.47;;
27833;SDS011;15200;50.570;7.244;2023-03-04T04:49:17;97.40;;;40.03;;
27833;SDS011;15200;50.570;7.244;2023-03-04T04:51:44;92.53;;;40.73;;
27833;SDS011;15200;50.570;7.244;2023-03-04T04:54:12;93.53;;;39.00;;
27833;SDS011;15200;50.570;7.244;2023-03-04T04:56:39;94.80;;;39.93;;
27833;SDS011;15200;50.570;7.244;2023-03-04T04:59:07;91.73;;;37.40;;
27833;SDS011;15200;50.570;7.244;2023-03-04T05:01:34;101.40;;;39.37;;
27833;SDS011;15200;50.570;7.244;2023-03-04T05:04:01;97.77;;;40.10;;
27833;SDS011;15200;50.570;7.244;2023-03-04T05:06:29;93.03;;;39.73;;
27833;SDS011;15200;50.570;7.244;2023-03-04T05:08:56;98.17;;;40.10;;
27833;SDS011;15200;50.570;7.244;2023-03-04T05:11:23;97.43;;;39.97;;
27833;SDS011;15200;50.570;7.244;2023-03-04T05:13:51;97.60;;;40.40;;
27833;SDS011;15200;50.570;7.244;2023-03-04T05:16:18;104.37;;;41.07;;
27833;SDS011;15200;50.570;7.244;2023-03-04T05:18:46;97.47;;;39.90;;
27833;SDS011;15200;50.570;7.244;2023-03-04T05:21:13;98.00;;;42.33;;
27833;SDS011;15200;50.570;7.244;2023-03-04T05:23:41;97.67;;;39.53;;
27833;SDS011;15200;50.570;7.244;2023-03-04T05:26:10;102.60;;;40.30;;
27833;SDS011;15200;50.570;7.244;2023-03-04T05:28:38;86.53;;;37.27;;
27833;SDS011;15200;50.570;7.244;2023-03-04T05:31:05;88.77;;;38.53;;
27833;SDS011;15200;50.570;7.244;2023-03-04T05:33:33;104.00;;;42.43;;
27833;SDS011;15200;50.570;7.244;2023-03-04T05:36:00;97.13;;;39.67;;
27833;SDS011;15200;50.570;7.244;2023-03-04T05:38:28;94.63;;;39.87;;
27833;SDS011;15200;50.570;7.244;2023-03-04T05:40:56;90.57;;;39.63;;
27833;SDS011;15200;50.570;7.244;2023-03-04T05:43:24;91.53;;;39.10;;
27833;SDS011;15200;50.570;7.244;2023-03-04T05:45:53;91.10;;;38.17;;
27833;SDS011;15200;50.570;7.244;2023-03-04T05:48:20;93.80;;;38.63;;
27833;SDS011;15200;50.570;7.244;2023-03-04T05:50:52;95.70;;;39.87;;
27833;SDS011;15200;50.570;7.244;2023-03-04T05:53:16;94.93;;;39.70;;
27833;SDS011;15200;50.570;7.244;2023-03-04T05:55:46;92.00;;;37.53;;
27833;SDS011;15200;50.570;7.244;2023-03-04T05:58:14;92.60;;;38.67;;
27833;SDS011;15200;50.570;7.244;2023-03-04T06:00:42;95.87;;;37.63;;
27833;SDS011;15200;50.570;7.244;2023-03-04T06:03:16;89.40;;;37.87;;
27833;SDS011;15200;50.570;7.244;2023-03-04T06:05:44;85.00;;;36.07;;
27833;SDS011;15200;50.570;7.244;2023-03-04T06:08:11;88.67;;;38.13;;
27833;SDS011;15200;50.570;7.244;2023-03-04T06:10:39;91.03;;;37.67;;
27833;SDS011;15200;50.570;7.244;2023-03-04T06:13:07;82.27;;;36.03;;
27833;SDS011;15200;50.570;7.244;2023-03-04T06:15:34;95.80;;;38.33;;
27833;SDS011;15200;50.570;7.244;2023-03-04T06:18:02;84.30;;;35.90;;
27833;SDS011;15200;50.570;7.244;2023-03-04T06:20:29;89.07;;;36.60;;
27833;SDS011;15200;50.570;7.244;2023-03-04T06:22:56;80.10;;;35.13;;
27833;SDS011;15200;50.570;7.244;2023-03-04T06:25:24;92.87;;;36.97;;
27833;SDS011;15200;50.570;7.244;2023-03-04T06:27:51;88.80;;;37.33;;
27833;SDS011;15200;50.570;7.244;2023-03-04T06:30:18;83.03;;;35.23;;
27833;SDS011;15200;50.570;7.244;2023-03-04T06:32:46;86.43;;;37.33;;
27833;SDS011;15200;50.570;7.244;2023-03-04T06:35:14;78.00;;;35.90;;
27833;SDS011;15200;50.570;7.244;2023-03-04T06:37:41;91.27;;;37.10;;
27833;SDS011;15200;50.570;7.244;2023-03-04T06:40:09;90.80;;;37.73;;
27833;SDS011;15200;50.570;7.244;2023-03-04T06:42:37;85.43;;;36.87;;
27833;SDS011;15200;50.570;7.244;2023-03-04T06:45:05;88.20;;;37.43;;
27833;SDS011;15200;50.570;7.244;2023-03-04T06:47:32;85.40;;;35.47;;
27833;SDS011;15200;50.570;7.244;2023-03-04T06:50:00;95.70;;;37.77;;
27833;SDS011;15200;50.570;7.244;2023-03-04T06:52:28;82.23;;;34.83;;
27833;SDS011;15200;50.570;7.244;2023-03-04T06:54:56;79.87;;;35.00;;
27833;SDS011;15200;50.570;7.244;2023-03-04T06:57:23;84.90;;;36.27;;
27833;SDS011;15200;50.570;7.244;2023-03-04T06:59:50;76.07;;;33.40;;
27833;SDS011;15200;50.570;7.244;2023-03-04T07:02:18;89.53;;;37.37;;
27833;SDS011;15200;50.570;7.244;2023-03-04T07:04:45;86.63;;;36.50;;
27833;SDS011;15200;50.570;7.244;2023-03-04T07:07:12;76.17;;;34.60;;
27833;SDS011;15200;50.570;7.244;2023-03-04T07:09:40;85.80;;;35.10;;
27833;SDS011;15200;50.570;7.244;2023-03-04T07:12:07;91.03;;;35.53;;
27833;SDS011;15200;50.570;7.244;2023-03-04T07:14:34;72.47;;;32.40;;
27833;SDS011;15200;50.570;7.244;2023-03-04T07:17:02;79.27;;;34.73;;
27833;SDS011;15200;50.570;7.244;2023-03-04T07:19:29;80.77;;;36.23;;
27833;SDS011;15200;50.570;7.244;2023-03-04T07:21:58;70.30;;;32.23;;
27833;SDS011;15200;50.570;7.244;2023-03-04T07:24:25;79.17;;;32.97;;
27833;SDS011;15200;50.570;7.244;2023-03-04T07:26:52;78.80;;;34.40;;
27833;SDS011;15200;50.570;7.244;2023-03-04T07:29:20;71.57;;;31.40;;
27833;SDS011;15200;50.570;7.244;2023-03-04T07:31:47;74.63;;;32.97;;
27833;SDS011;15200;50.570;7.244;2023-03-04T07:34:14;76.03;;;32.67;;
27833;SDS011;15200;50.570;7.244;2023-03-04T07:36:42;76.13;;;34.20;;
27833;SDS011;15200;50.570;7.244;2023-03-04T07:39:10;82.77;;;33.80;;
27833;SDS011;15200;50.570;7.244;2023-03-04T07:41:39;75.17;;;32.73;;
27833;SDS011;15200;50.570;7.244;2023-03-04T07:44:07;73.67;;;32.43;;
27833;SDS011;15200;50.570;7.244;2023-03-04T07:46:34;68.90;;;30.17;;
27833;SDS011;15200;50.570;7.244;2023-03-04T07:49:02;73.60;;;30.97;;
27833;SDS011;15200;50.570;7.244;2023-03-04T07:51:29;73.63;;;31.40;;
27833;SDS011;15200;50.570;7.244;2023-03-04T07:53:57;76.87;;;33.63;;
27833;SDS011;15200;50.570;7.244;2023-03-04T07:56:26;69.90;;;29.90;;
27833;SDS011;15200;50.570;7.244;2023-03-04T07:58:54;65.83;;;30.87;;
27833;SDS011;15200;50.570;7.244;2023-03-04T08:01:23;73.27;;;31.27;;
27833;SDS011;15200;50.570;7.244;2023-03-04T08:03:50;69.90;;;30.30;;
27833;SDS011;15200;50.570;7.244;2023-03-04T08:06:18;71.60;;;31.97;;
27833;SDS011;15200;50.570;7.244;2023-03-04T08:08:46;72.17;;;30.73;;
27833;SDS011;15200;50.570;7.244;2023-03-04T08:11:14;68.97;;;30.47;;
27833;SDS011;15200;50.570;7.244;2023-03-04T08:13:42;68.77;;;29.87;;
27833;SDS011;15200;50.570;7.244;2023-03-04T08:16:15;68.63;;;30.97;;
27833;SDS011;15200;50.570;7.244;2023-03-04T08:18:41;62.27;;;29.77;;
27833;SDS011;15200;50.570;7.244;2023-03-04T08:21:09;66.33;;;28.83;;
27833;SDS011;15200;50.570;7.244;2023-03-04T08:23:37;70.00;;;29.00;;
27833;SDS011;15200;50.570;7.244;2023-03-04T08:26:05;65.50;;;27.37;;
27833;SDS011;15200;50.570;7.244;2023-03-04T08:28:33;61.53;;;26.83;;
27833;SDS011;15200;50.570;7.244;2023-03-04T08:31:00;53.63;;;24.67;;
27833;SDS011;15200;50.570;7.244;2023-03-04T08:33:27;51.30;;;22.60;;
27833;SDS011;15200;50.570;7.244;2023-03-04T08:35:55;54.03;;;24.73;;
27833;SDS011;15200;50.570;7.244;2023-03-04T08:38:22;56.13;;;24.13;;
27833;SDS011;15200;50.570;7.244;2023-03-04T08:40:55;54.90;;;23.93;;
27833;SDS011;15200;50.570;7.244;2023-03-04T08:43:23;57.10;;;24.20;;
27833;SDS011;15200;50.570;7.244;2023-03-04T08:45:52;53.37;;;24.23;;
27833;SDS011;15200;50.570;7.244;2023-03-04T08:48:19;57.80;;;23.47;;
27833;SDS011;15200;50.570;7.244;2023-03-04T08:50:47;52.00;;;21.53;;
27833;SDS011;15200;50.570;7.244;2023-03-04T08:53:15;40.67;;;17.77;;
27833;SDS011;15200;50.570;7.244;2023-03-04T08:55:43;37.60;;;16.77;;
27833;SDS011;15200;50.570;7.244;2023-03-04T08:58:10;38.00;;;16.43;;
27833;SDS011;15200;50.570;7.244;2023-03-04T09:00:39;44.37;;;16.53;;
27833;SDS011;15200;50.570;7.244;2023-03-04T09:03:09;36.77;;;16.93;;
27833;SDS011;15200;50.570;7.244;2023-03-04T09:05:37;36.57;;;16.90;;
27833;SDS011;15200;50.570;7.244;2023-03-04T09:08:04;44.37;;;18.53;;
27833;SDS011;15200;50.570;7.244;2023-03-04T09:10:32;45.10;;;18.47;;
27833;SDS011;15200;50.570;7.244;2023-03-04T09:12:59;43.27;;;18.07;;
27833;SDS011;15200;50.570;7.244;2023-03-04T09:15:27;38.13;;;16.80;;
27833;SDS011;15200;50.570;7.244;2023-03-04T09:17:54;34.83;;;16.17;;
27833;SDS011;15200;50.570;7.244;2023-03-04T09:20:22;25.33;;;11.90;;
27833;SDS011;15200;50.570;7.244;2023-03-04T09:22:49;21.63;;;9.03;;
27833;SDS011;15200;50.570;7.244;2023-03-04T09:25:17;18.50;;;7.77;;
27833;SDS011;15200;50.570;7.244;2023-03-04T09:27:44;20.23;;;5.57;;
27833;SDS011;15200;50.570;7.244;2023-03-04T09:30:11;15.10;;;4.83;;
27833;SDS011;15200;50.570;7.244;2023-03-04T09:32:39;14.93;;;4.70;;
27833;SDS011;15200;50.570;7.244;2023-03-04T09:35:07;14.80;;;4.83;;
27833;SDS011;15200;50.570;7.244;2023-03-04T09:37:35;19.23;;;5.10;;
27833;SDS011;15200;50.570;7.244;2023-03-04T09:40:03;12.70;;;5.23;;
27833;SDS011;15200;50.570;7.244;2023-03-04T09:42:37;13.60;;;4.60;;
27833;SDS011;15200;50.570;7.244;2023-03-04T09:45:05;12.80;;;4.67;;
27833;SDS011;15200;50.570;7.244;2023-03-04T09:47:34;16.40;;;4.80;;
27833;SDS011;15200;50.570;7.244;2023-03-04T09:50:03;16.00;;;4.83;;
27833;SDS011;15200;50.570;7.244;2023-03-04T09:55:02;16.53;;;5.13;;
27833;SDS011;15200;50.570;7.244;2023-03-04T10:00:36;15.23;;;5.03;;
27833;SDS011;15200;50.570;7.244;2023-03-04T10:08:19;13.60;;;3.87;;
27833;SDS011;15200;50.570;7.244;2023-03-04T10:10:41;12.57;;;4.27;;
27833;SDS011;15200;50.570;7.244;2023-03-04T10:13:17;12.03;;;4.50;;
27833;SDS011;15200;50.570;7.244;2023-03-04T10:15:45;13.97;;;4.40;;
27833;SDS011;15200;50.570;7.244;2023-03-04T10:18:15;14.83;;;3.90;;
27833;SDS011;15200;50.570;7.244;2023-03-04T10:20:45;16.33;;;4.47;;
27833;SDS011;15200;50.570;7.244;2023-03-04T10:23:14;12.80;;;4.73;;
27833;SDS011;15200;50.570;7.244;2023-03-04T10:25:42;13.43;;;4.73;;
27833;SDS011;15200;50.570;7.244;2023-03-04T10:28:16;11.00;;;4.27;;
27833;SDS011;15200;50.570;7.244;2023-03-04T10:30:48;8.20;;;4.17;;
27833;SDS011;15200;50.570;7.244;2023-03-04T10:33:16;8.57;;;3.93;;
27833;SDS011;15200;50.570;7.244;2023-03-04T10:35:50;10.10;;;4.30;;
27833;SDS011;15200;50.570;7.244;2023-03-04T10:38:18;9.77;;;3.87;;
27833;SDS011;15200;50.570;7.244;2023-03-04T10:40:46;12.77;;;4.17;;
27833;SDS011;15200;50.570;7.244;2023-03-04T10:43:14;11.43;;;4.37;;
27833;SDS011;15200;50.570;7.244;2023-03-04T10:45:42;12.37;;;3.73;;
27833;SDS011;15200;50.570;7.244;2023-03-04T10:48:20;10.10;;;4.07;;
27833;SDS011;15200;50.570;7.244;2023-03-04T10:50:39;8.93;;;3.92;;
27833;SDS011;15200;50.570;7.244;2023-03-04T10:53:09;11.25;;;3.47;;
27833;SDS011;15200;50.570;7.244;2023-03-04T10:55:42;10.40;;;4.80;;
27833;SDS011;15200;50.570;7.244;2023-03-04T10:58:12;7.42;;;3.85;;
27833;SDS011;15200;50.570;7.244;2023-03-04T11:00:39;8.28;;;3.98;;
27833;SDS011;15200;50.570;7.244;2023-03-04T11:03:20;7.78;;;3.40;;
27833;SDS011;15200;50.570;7.244;2023-03-04T11:05:47;11.28;;;3.52;;
27833;SDS011;15200;50.570;7.244;2023-03-04T11:08:15;8.38;;;4.33;;
27833;SDS011;15200;50.570;7.244;2023-03-04T11:10:43;11.70;;;4.10;;
27833;SDS011;15200;50.570;7.244;2023-03-04T11:13:15;11.80;;;4.95;;
27833;SDS011;15200;50.570;7.244;2023-03-04T11:21:03;9.65;;;4.50;;
27833;SDS011;15200;50.570;7.244;2023-03-04T11:26:01;6.42;;;4.33;;
27833;SDS011;15200;50.570;7.244;2023-03-04T11:31:15;7.20;;;3.20;;
27833;SDS011;15200;50.570;7.244;2023-03-04T11:36:28;7.87;;;3.22;;
27833;SDS011;15200;50.570;7.244;2023-03-04T11:38:54;3.55;;;3.15;;
27833;SDS011;15200;50.570;7.244;2023-03-04T11:41:24;4.58;;;3.40;;
27833;SDS011;15200;50.570;7.244;2023-03-04T11:43:51;8.70;;;3.60;;
27833;SDS011;15200;50.570;7.244;2023-03-04T11:49:24;6.75;;;3.12;;
27833;SDS011;15200;50.570;7.244;2023-03-04T11:54:42;8.53;;;3.10;;
27833;SDS011;15200;50.570;7.244;2023-03-04T11:57:21;7.08;;;3.08;;
27833;SDS011;15200;50.570;7.244;2023-03-04T11:59:50;8.55;;;3.20;;
27833;SDS011;15200;50.570;7.244;2023-03-04T12:02:22;9.60;;;3.83;;
27833;SDS011;15200;50.570;7.244;2023-03-04T12:04:52;8.63;;;3.90;;
27833;SDS011;15200;50.570;7.244;2023-03-04T12:10:03;11.70;;;4.40;;
27833;SDS011;15200;50.570;7.244;2023-03-04T12:22:46;11.40;;;4.22;;
27833;SDS011;15200;50.570;7.244;2023-03-04T12:27:55;8.53;;;3.98;;
27833;SDS011;15200;50.570;7.244;2023-03-04T12:30:29;10.95;;;5.20;;
27833;SDS011;15200;50.570;7.244;2023-03-04T12:33:07;8.43;;;4.37;;
27833;SDS011;15200;50.570;7.244;2023-03-04T12:35:35;5.73;;;3.90;;
27833;SDS011;15200;50.570;7.244;2023-03-04T12:43:39;8.53;;;3.83;;
27833;SDS011;15200;50.570;7.244;2023-03-04T12:54:05;6.62;;;3.60;;
27833;SDS011;15200;50.570;7.244;2023-03-04T12:56:39;6.15;;;3.47;;
27833;SDS011;15200;50.570;7.244;2023-03-04T12:59:05;8.05;;;3.37;;
27833;SDS011;15200;50.570;7.244;2023-03-04T13:02:37;10.43;;;4.20;;
27833;SDS011;15200;50.570;7.244;2023-03-04T13:04:35;4.80;;;3.25;;
27833;SDS011;15200;50.570;7.244;2023-03-04T13:09:23;10.20;;;4.05;;
27833;SDS011;15200;50.570;7.244;2023-03-04T13:11:54;8.40;;;3.90;;
27833;SDS011;15200;50.570;7.244;2023-03-04T13:14:24;7.72;;;3.95;;
27833;SDS011;15200;50.570;7.244;2023-03-04T13:16:53;7.30;;;4.20;;
27833;SDS011;15200;50.570;7.244;2023-03-04T13:24:51;11.22;;;4.70;;
27833;SDS011;15200;50.570;7.244;2023-03-04T13:30:07;7.65;;;3.50;;
27833;SDS011;15200;50.570;7.244;2023-03-04T13:32:35;8.63;;;3.25;;
27833;SDS011;15200;50.570;7.244;2023-03-04T13:35:45;5.10;;;3.00;;
27833;SDS011;15200;50.570;7.244;2023-03-04T13:37:33;9.05;;;3.33;;
27833;SDS011;15200;50.570;7.244;2023-03-04T13:42:52;6.30;;;3.47;;
27833;SDS011;15200;50.570;7.244;2023-03-04T13:45:30;11.27;;;3.37;;
27833;SDS011;15200;50.570;7.244;2023-03-04T13:50:45;7.80;;;2.60;;
27833;SDS011;15200;50.570;7.244;2023-03-04T13:56:08;6.62;;;2.40;;
27833;SDS011;15200;50.570;7.244;2023-03-04T13:58:34;4.83;;;2.37;;
27833;SDS011;15200;50.570;7.244;2023-03-04T14:01:02;6.37;;;2.63;;
27833;SDS011;15200;50.570;7.244;2023-03-04T14:03:33;4.78;;;2.35;;
27833;SDS011;15200;50.570;7.244;2023-03-04T14:08:48;2.93;;;2.03;;
27833;SDS011;15200;50.570;7.244;2023-03-04T14:11:23;2.47;;;2.22;;
27833;SDS011;15200;50.570;7.244;2023-03-04T14:13:51;5.47;;;2.80;;
27833;SDS011;15200;50.570;7.244;2023-03-04T14:16:19;5.87;;;2.30;;
27833;SDS011;15200;50.570;7.244;2023-03-04T14:18:57;3.83;;;1.95;;
27833;SDS011;15200;50.570;7.244;2023-03-04T14:21:24;8.15;;;2.15;;
27833;SDS011;15200;50.570;7.244;2023-03-04T14:23:58;9.03;;;2.53;;
27833;SDS011;15200;50.570;7.244;2023-03-04T14:26:26;4.22;;;2.12;;
27833;SDS011;15200;50.570;7.244;2023-03-04T14:28:55;4.67;;;2.00;;
27833;SDS011;15200;50.570;7.244;2023-03-04T14:31:25;4.10;;;1.70;;
27833;SDS011;15200;50.570;7.244;2023-03-04T14:33:56;2.52;;;1.80;;
27833;SDS011;15200;50.570;7.244;2023-03-04T14:36:31;4.90;;;1.55;;
27833;SDS011;15200;50.570;7.244;2023-03-04T14:38:59;4.25;;;2.08;;
27833;SDS011;15200;50.570;7.244;2023-03-04T14:41:32;5.97;;;2.40;;
27833;SDS011;15200;50.570;7.244;2023-03-04T14:46:34;3.58;;;1.62;;
27833;SDS011;15200;50.570;7.244;2023-03-04T14:49:00;6.33;;;1.90;;
27833;SDS011;15200;50.570;7.244;2023-03-04T14:51:29;2.95;;;1.52;;
27833;SDS011;15200;50.570;7.244;2023-03-04T14:53:57;4.10;;;2.02;;
27833;SDS011;15200;50.570;7.244;2023-03-04T14:56:28;7.70;;;1.92;;
27833;SDS011;15200;50.570;7.244;2023-03-04T14:58:56;6.37;;;2.37;;
27833;SDS011;15200;50.570;7.244;2023-03-04T15:01:28;4.03;;;1.95;;
27833;SDS011;15200;50.570;7.244;2023-03-04T15:03:56;3.72;;;2.22;;
27833;SDS011;15200;50.570;7.244;2023-03-04T15:06:26;4.10;;;2.00;;
27833;SDS011;15200;50.570;7.244;2023-03-04T15:08:58;4.60;;;1.75;;
27833;SDS011;15200;50.570;7.244;2023-03-04T15:11:28;5.97;;;1.97;;
27833;SDS011;15200;50.570;7.244;2023-03-04T15:13:53;5.17;;;1.63;;
27833;SDS011;15200;50.570;7.244;2023-03-04T15:16:21;4.35;;;1.72;;
27833;SDS011;15200;50.570;7.244;2023-03-04T15:18:57;2.85;;;2.02;;
27833;SDS011;15200;50.570;7.244;2023-03-04T15:23:49;6.60;;;1.92;;
27833;SDS011;15200;50.570;7.244;2023-03-04T15:26:17;3.70;;;1.30;;
27833;SDS011;15200;50.570;7.244;2023-03-04T15:28:44;1.97;;;1.10;;
27833;SDS011;15200;50.570;7.244;2023-03-04T15:31:18;6.50;;;1.65;;
27833;SDS011;15200;50.570;7.244;2023-03-04T15:33:46;5.28;;;1.95;;
27833;SDS011;15200;50.570;7.244;2023-03-04T15:36:14;2.67;;;1.60;;
27833;SDS011;15200;50.570;7.244;2023-03-04T15:38:46;4.83;;;1.30;;
27833;SDS011;15200;50.570;7.244;2023-03-04T15:41:15;4.35;;;2.22;;
27833;SDS011;15200;50.570;7.244;2023-03-04T15:43:42;6.25;;;2.12;;
27833;SDS011;15200;50.570;7.244;2023-03-04T15:46:10;3.05;;;1.37;;
27833;SDS011;15200;50.570;7.244;2023-03-04T15:48:38;2.63;;;1.67;;
27833;SDS011;15200;50.570;7.244;2023-03-04T15:51:05;4.40;;;1.77;;
27833;SDS011;15200;50.570;7.244;2023-03-04T15:53:37;5.03;;;1.40;;
27833;SDS011;15200;50.570;7.244;2023-03-04T15:56:11;2.80;;;1.70;;
27833;SDS011;15200;50.570;7.244;2023-03-04T15:58:37;2.35;;;1.40;;
27833;SDS011;15200;50.570;7.244;2023-03-04T16:01:04;3.30;;;1.53;;
27833;SDS011;15200;50.570;7.244;2023-03-04T16:03:32;5.53;;;1.90;;
27833;SDS011;15200;50.570;7.244;2023-03-04T16:08:47;4.00;;;1.65;;
27833;SDS011;15200;50.570;7.244;2023-03-04T16:11:16;3.00;;;1.60;;
27833;SDS011;15200;50.570;7.244;2023-03-04T16:13:44;5.55;;;2.08;;
27833;SDS011;15200;50.570;7.244;2023-03-04T16:16:12;2.13;;;1.50;;